Terminal Aerodrome Forecast
Issued by NWS

Home | Current Version | Previous Version | Text Only | Print | Product List | Glossary On
Versions: 1 2 3 4 5 6 7 8 9 10 11 12 13 14 15 16 17 18 19 20 21 22 23 24 25 26 27 28 29 30 31 32 33 34 35 36 37 38 39 40
000
FTUS43 KGRB 312300
TAFRHI
TAF
KRHI 312335Z 0100/0124 32004KT P6SM SKC
     FM010600 VRB02KT 5SM BR SCT080
      TEMPO 0108/0112 1 1/2SM BR SCT005
     FM011400 26004KT P6SM SCT080
      TEMPO 0118/0122 BKN080=

USA.gov is the U.S. government's official web portal to all federal, state and local government web resources and services.